sensor_id;sensor_type;location;lat;lon;timestamp;P1;durP1;ratioP1;P2;durP2;ratioP2
14088;SDS011;7120;52.890;6.040;2023-03-01T00:02:06;38.50;;;25.37;;
14088;SDS011;7120;52.890;6.040;2023-03-01T00:04:32;45.33;;;25.90;;
14088;SDS011;7120;52.890;6.040;2023-03-01T00:06:57;43.10;;;26.07;;
14088;SDS011;7120;52.890;6.040;2023-03-01T00:09:23;43.87;;;26.20;;
14088;SDS011;7120;52.890;6.040;2023-03-01T00:11:48;39.07;;;24.97;;
14088;SDS011;7120;52.890;6.040;2023-03-01T00:14:14;42.13;;;26.10;;
14088;SDS011;7120;52.890;6.040;2023-03-01T00:16:41;39.33;;;26.07;;
14088;SDS011;7120;52.890;6.040;2023-03-01T00:19:12;41.83;;;24.50;;
14088;SDS011;7120;52.890;6.040;2023-03-01T00:21:39;37.57;;;24.53;;
14088;SDS011;7120;52.890;6.040;2023-03-01T00:24:05;41.37;;;25.13;;
14088;SDS011;7120;52.890;6.040;2023-03-01T00:26:31;44.07;;;27.60;;
14088;SDS011;7120;52.890;6.040;2023-03-01T00:28:57;48.57;;;27.53;;
14088;SDS011;7120;52.890;6.040;2023-03-01T00:31:24;44.13;;;26.17;;
14088;SDS011;7120;52.890;6.040;2023-03-01T00:33:52;42.10;;;25.80;;
14088;SDS011;7120;52.890;6.040;2023-03-01T00:36:22;45.60;;;26.17;;
14088;SDS011;7120;52.890;6.040;2023-03-01T00:38:48;45.13;;;26.53;;
14088;SDS011;7120;52.890;6.040;2023-03-01T00:41:14;44.03;;;26.57;;
14088;SDS011;7120;52.890;6.040;2023-03-01T00:43:42;41.43;;;26.37;;
14088;SDS011;7120;52.890;6.040;2023-03-01T00:46:09;50.80;;;27.40;;
14088;SDS011;7120;52.890;6.040;2023-03-01T00:48:36;41.00;;;25.87;;
14088;SDS011;7120;52.890;6.040;2023-03-01T00:51:08;47.23;;;26.43;;
14088;SDS011;7120;52.890;6.040;2023-03-01T00:53:38;44.57;;;28.20;;
14088;SDS011;7120;52.890;6.040;2023-03-01T00:56:04;48.43;;;29.30;;
14088;SDS011;7120;52.890;6.040;2023-03-01T00:58:32;47.33;;;28.63;;
14088;SDS011;7120;52.890;6.040;2023-03-01T01:00:57;44.33;;;28.13;;
14088;SDS011;7120;52.890;6.040;2023-03-01T01:03:23;42.80;;;24.93;;
14088;SDS011;7120;52.890;6.040;2023-03-01T01:05:50;39.37;;;22.80;;
14088;SDS011;7120;52.890;6.040;2023-03-01T01:08:17;35.20;;;23.10;;
14088;SDS011;7120;52.890;6.040;2023-03-01T01:10:43;33.57;;;22.53;;
14088;SDS011;7120;52.890;6.040;2023-03-01T01:13:09;34.07;;;22.50;;
14088;SDS011;7120;52.890;6.040;2023-03-01T01:15:34;36.10;;;23.60;;
14088;SDS011;7120;52.890;6.040;2023-03-01T01:18:00;36.30;;;23.70;;
14088;SDS011;7120;52.890;6.040;2023-03-01T01:20:25;39.83;;;24.73;;
14088;SDS011;7120;52.890;6.040;2023-03-01T01:22:51;39.07;;;24.50;;
14088;SDS011;7120;52.890;6.040;2023-03-01T01:25:16;38.93;;;23.83;;
14088;SDS011;7120;52.890;6.040;2023-03-01T01:27:42;38.20;;;24.07;;
14088;SDS011;7120;52.890;6.040;2023-03-01T01:30:07;38.80;;;23.30;;
14088;SDS011;7120;52.890;6.040;2023-03-01T01:32:33;35.83;;;23.67;;
14088;SDS011;7120;52.890;6.040;2023-03-01T01:34:59;38.03;;;24.23;;
14088;SDS011;7120;52.890;6.040;2023-03-01T01:37:24;35.03;;;23.67;;
14088;SDS011;7120;52.890;6.040;2023-03-01T01:39:56;37.70;;;22.87;;
14088;SDS011;7120;52.890;6.040;2023-03-01T01:42:23;37.47;;;24.57;;
14088;SDS011;7120;52.890;6.040;2023-03-01T01:44:48;36.23;;;23.60;;
14088;SDS011;7120;52.890;6.040;2023-03-01T01:47:54;35.97;;;23.43;;
14088;SDS011;7120;52.890;6.040;2023-03-01T01:50:22;36.37;;;23.33;;
14088;SDS011;7120;52.890;6.040;2023-03-01T01:52:48;38.67;;;24.57;;
14088;SDS011;7120;52.890;6.040;2023-03-01T01:55:18;34.30;;;23.87;;
14088;SDS011;7120;52.890;6.040;2023-03-01T01:58:00;38.70;;;23.43;;
14088;SDS011;7120;52.890;6.040;2023-03-01T02:00:29;105.53;;;30.23;;
14088;SDS011;7120;52.890;6.040;2023-03-01T02:02:56;265.90;;;40.97;;
14088;SDS011;7120;52.890;6.040;2023-03-01T02:05:32;74.83;;;30.00;;
14088;SDS011;7120;52.890;6.040;2023-03-01T02:08:05;180.03;;;33.97;;
14088;SDS011;7120;52.890;6.040;2023-03-01T02:10:33;95.50;;;27.13;;
14088;SDS011;7120;52.890;6.040;2023-03-01T02:13:00;86.80;;;27.57;;
14088;SDS011;7120;52.890;6.040;2023-03-01T02:15:27;258.83;;;35.93;;
14088;SDS011;7120;52.890;6.040;2023-03-01T02:17:57;263.93;;;36.53;;
14088;SDS011;7120;52.890;6.040;2023-03-01T02:20:27;210.50;;;34.50;;
14088;SDS011;7120;52.890;6.040;2023-03-01T02:23:10;243.83;;;35.43;;
14088;SDS011;7120;52.890;6.040;2023-03-01T02:30:50;194.63;;;32.57;;
14088;SDS011;7120;52.890;6.040;2023-03-01T02:33:36;240.57;;;35.90;;
14088;SDS011;7120;52.890;6.040;2023-03-01T02:36:05;359.73;;;41.43;;
14088;SDS011;7120;52.890;6.040;2023-03-01T02:38:34;291.97;;;38.53;;
14088;SDS011;7120;52.890;6.040;2023-03-01T02:40:59;285.03;;;37.33;;
14088;SDS011;7120;52.890;6.040;2023-03-01T02:43:28;183.50;;;32.60;;
14088;SDS011;7120;52.890;6.040;2023-03-01T02:45:57;136.00;;;30.00;;
14088;SDS011;7120;52.890;6.040;2023-03-01T02:48:37;75.67;;;25.60;;
14088;SDS011;7120;52.890;6.040;2023-03-01T02:51:16;81.87;;;24.90;;
14088;SDS011;7120;52.890;6.040;2023-03-01T02:56:17;170.20;;;27.47;;
14088;SDS011;7120;52.890;6.040;2023-03-01T02:58:43;104.40;;;25.47;;
14088;SDS011;7120;52.890;6.040;2023-03-01T03:01:16;173.87;;;29.93;;
14088;SDS011;7120;52.890;6.040;2023-03-01T03:03:42;180.50;;;30.70;;
14088;SDS011;7120;52.890;6.040;2023-03-01T03:06:08;258.67;;;34.03;;
14088;SDS011;7120;52.890;6.040;2023-03-01T03:08:34;127.97;;;26.17;;
14088;SDS011;7120;52.890;6.040;2023-03-01T03:10:59;176.67;;;30.30;;
14088;SDS011;7120;52.890;6.040;2023-03-01T03:13:24;120.27;;;28.00;;
14088;SDS011;7120;52.890;6.040;2023-03-01T03:15:53;154.70;;;26.80;;
14088;SDS011;7120;52.890;6.040;2023-03-01T03:18:19;188.03;;;30.77;;
14088;SDS011;7120;52.890;6.040;2023-03-01T03:20:45;66.37;;;22.60;;
14088;SDS011;7120;52.890;6.040;2023-03-01T03:23:10;205.83;;;31.93;;
14088;SDS011;7120;52.890;6.040;2023-03-01T03:25:37;182.67;;;31.23;;
14088;SDS011;7120;52.890;6.040;2023-03-01T03:28:03;154.70;;;28.70;;
14088;SDS011;7120;52.890;6.040;2023-03-01T03:30:35;179.00;;;28.53;;
14088;SDS011;7120;52.890;6.040;2023-03-01T03:33:04;296.93;;;37.13;;
14088;SDS011;7120;52.890;6.040;2023-03-01T03:35:38;82.03;;;25.70;;
14088;SDS011;7120;52.890;6.040;2023-03-01T03:38:05;391.33;;;43.03;;
14088;SDS011;7120;52.890;6.040;2023-03-01T03:43:08;165.97;;;27.20;;
14088;SDS011;7120;52.890;6.040;2023-03-01T03:45:35;127.17;;;26.07;;
14088;SDS011;7120;52.890;6.040;2023-03-01T03:48:01;163.73;;;27.77;;
14088;SDS011;7120;52.890;6.040;2023-03-01T03:50:28;54.97;;;22.27;;
14088;SDS011;7120;52.890;6.040;2023-03-01T03:52:54;151.80;;;26.67;;
14088;SDS011;7120;52.890;6.040;2023-03-01T03:55:19;315.67;;;39.07;;
14088;SDS011;7120;52.890;6.040;2023-03-01T03:57:46;214.73;;;33.37;;
14088;SDS011;7120;52.890;6.040;2023-03-01T04:00:16;176.37;;;29.90;;
14088;SDS011;7120;52.890;6.040;2023-03-01T04:02:44;47.00;;;22.17;;
14088;SDS011;7120;52.890;6.040;2023-03-01T04:05:11;43.20;;;21.30;;
14088;SDS011;7120;52.890;6.040;2023-03-01T04:07:38;41.20;;;20.57;;
14088;SDS011;7120;52.890;6.040;2023-03-01T04:10:04;96.93;;;22.57;;
14088;SDS011;7120;52.890;6.040;2023-03-01T04:12:31;84.70;;;21.77;;
14088;SDS011;7120;52.890;6.040;2023-03-01T04:14:59;123.00;;;26.03;;
14088;SDS011;7120;52.890;6.040;2023-03-01T04:17:24;111.67;;;23.63;;
14088;SDS011;7120;52.890;6.040;2023-03-01T04:19:50;118.17;;;23.47;;
14088;SDS011;7120;52.890;6.040;2023-03-01T04:22:15;80.27;;;22.93;;
14088;SDS011;7120;52.890;6.040;2023-03-01T04:24:42;28.90;;;19.37;;
14088;SDS011;7120;52.890;6.040;2023-03-01T04:27:08;33.13;;;18.60;;
14088;SDS011;7120;52.890;6.040;2023-03-01T04:29:34;76.10;;;20.50;;
14088;SDS011;7120;52.890;6.040;2023-03-01T04:31:59;71.60;;;20.93;;
14088;SDS011;7120;52.890;6.040;2023-03-01T04:34:25;44.97;;;18.27;;
14088;SDS011;7120;52.890;6.040;2023-03-01T04:36:51;85.60;;;20.07;;
14088;SDS011;7120;52.890;6.040;2023-03-01T04:39:17;34.60;;;18.53;;
14088;SDS011;7120;52.890;6.040;2023-03-01T04:41:43;54.13;;;20.97;;
14088;SDS011;7120;52.890;6.040;2023-03-01T04:44:08;38.87;;;18.83;;
14088;SDS011;7120;52.890;6.040;2023-03-01T04:46:34;25.43;;;18.00;;
14088;SDS011;7120;52.890;6.040;2023-03-01T04:49:00;36.93;;;17.73;;
14088;SDS011;7120;52.890;6.040;2023-03-01T04:51:26;23.37;;;16.37;;
14088;SDS011;7120;52.890;6.040;2023-03-01T04:53:51;76.63;;;19.50;;
14088;SDS011;7120;52.890;6.040;2023-03-01T04:56:17;36.47;;;17.63;;
14088;SDS011;7120;52.890;6.040;2023-03-01T04:58:43;37.13;;;17.77;;
14088;SDS011;7120;52.890;6.040;2023-03-01T05:01:13;46.73;;;18.40;;
14088;SDS011;7120;52.890;6.040;2023-03-01T05:03:41;26.00;;;16.90;;
14088;SDS011;7120;52.890;6.040;2023-03-01T05:06:08;26.90;;;17.93;;
14088;SDS011;7120;52.890;6.040;2023-03-01T05:08:34;30.73;;;17.47;;
14088;SDS011;7120;52.890;6.040;2023-03-01T05:11:02;28.03;;;18.90;;
14088;SDS011;7120;52.890;6.040;2023-03-01T05:13:28;27.07;;;18.60;;
14088;SDS011;7120;52.890;6.040;2023-03-01T05:15:55;36.57;;;20.63;;
14088;SDS011;7120;52.890;6.040;2023-03-01T05:18:22;34.83;;;19.90;;
14088;SDS011;7120;52.890;6.040;2023-03-01T05:20:51;37.13;;;20.50;;
14088;SDS011;7120;52.890;6.040;2023-03-01T05:23:17;34.53;;;18.87;;
14088;SDS011;7120;52.890;6.040;2023-03-01T05:25:43;29.90;;;20.33;;
14088;SDS011;7120;52.890;6.040;2023-03-01T05:28:12;26.23;;;19.27;;
14088;SDS011;7120;52.890;6.040;2023-03-01T05:30:37;26.37;;;18.57;;
14088;SDS011;7120;52.890;6.040;2023-03-01T05:33:06;26.77;;;19.60;;
14088;SDS011;7120;52.890;6.040;2023-03-01T05:35:38;28.27;;;19.10;;
14088;SDS011;7120;52.890;6.040;2023-03-01T05:38:04;24.97;;;18.47;;
14088;SDS011;7120;52.890;6.040;2023-03-01T05:40:29;21.20;;;17.03;;
14088;SDS011;7120;52.890;6.040;2023-03-01T05:42:55;21.47;;;16.37;;
14088;SDS011;7120;52.890;6.040;2023-03-01T05:45:22;21.57;;;17.20;;
14088;SDS011;7120;52.890;6.040;2023-03-01T05:47:49;27.13;;;19.30;;
14088;SDS011;7120;52.890;6.040;2023-03-01T05:50:19;27.33;;;18.30;;
14088;SDS011;7120;52.890;6.040;2023-03-01T05:52:47;24.30;;;17.60;;
14088;SDS011;7120;52.890;6.040;2023-03-01T05:55:15;27.50;;;18.30;;
14088;SDS011;7120;52.890;6.040;2023-03-01T05:57:41;24.50;;;17.87;;
14088;SDS011;7120;52.890;6.040;2023-03-01T06:00:07;25.10;;;18.27;;
14088;SDS011;7120;52.890;6.040;2023-03-01T06:02:33;22.90;;;17.03;;
14088;SDS011;7120;52.890;6.040;2023-03-01T06:04:58;23.23;;;16.67;;
14088;SDS011;7120;52.890;6.040;2023-03-01T06:07:24;25.73;;;17.83;;
14088;SDS011;7120;52.890;6.040;2023-03-01T06:09:49;25.33;;;18.07;;
14088;SDS011;7120;52.890;6.040;2023-03-01T06:12:14;21.13;;;16.33;;
14088;SDS011;7120;52.890;6.040;2023-03-01T06:14:40;22.90;;;16.17;;
14088;SDS011;7120;52.890;6.040;2023-03-01T06:17:05;24.30;;;17.40;;
14088;SDS011;7120;52.890;6.040;2023-03-01T06:19:31;21.30;;;15.87;;
14088;SDS011;7120;52.890;6.040;2023-03-01T06:21:56;20.60;;;15.67;;
14088;SDS011;7120;52.890;6.040;2023-03-01T06:24:21;18.90;;;15.97;;
14088;SDS011;7120;52.890;6.040;2023-03-01T06:26:47;21.37;;;16.00;;
14088;SDS011;7120;52.890;6.040;2023-03-01T06:29:12;24.13;;;17.40;;
14088;SDS011;7120;52.890;6.040;2023-03-01T06:31:37;23.83;;;17.27;;
14088;SDS011;7120;52.890;6.040;2023-03-01T06:34:03;21.87;;;17.50;;
14088;SDS011;7120;52.890;6.040;2023-03-01T06:36:28;23.13;;;18.63;;
14088;SDS011;7120;52.890;6.040;2023-03-01T06:38:53;22.50;;;17.80;;
14088;SDS011;7120;52.890;6.040;2023-03-01T06:41:19;21.90;;;17.47;;
14088;SDS011;7120;52.890;6.040;2023-03-01T06:43:44;21.93;;;16.90;;
14088;SDS011;7120;52.890;6.040;2023-03-01T06:46:10;22.53;;;18.77;;
14088;SDS011;7120;52.890;6.040;2023-03-01T06:48:35;21.93;;;17.53;;
14088;SDS011;7120;52.890;6.040;2023-03-01T06:51:00;20.57;;;16.63;;
14088;SDS011;7120;52.890;6.040;2023-03-01T06:53:27;21.43;;;17.20;;
14088;SDS011;7120;52.890;6.040;2023-03-01T06:55:54;21.63;;;17.50;;
14088;SDS011;7120;52.890;6.040;2023-03-01T06:58:23;21.03;;;17.13;;
14088;SDS011;7120;52.890;6.040;2023-03-01T07:00:48;20.67;;;16.37;;
14088;SDS011;7120;52.890;6.040;2023-03-01T07:03:14;20.93;;;16.60;;
14088;SDS011;7120;52.890;6.040;2023-03-01T07:05:39;18.40;;;14.87;;
14088;SDS011;7120;52.890;6.040;2023-03-01T07:08:04;19.67;;;15.77;;
14088;SDS011;7120;52.890;6.040;2023-03-01T07:10:30;20.57;;;16.20;;
14088;SDS011;7120;52.890;6.040;2023-03-01T07:12:56;18.43;;;15.20;;
14088;SDS011;7120;52.890;6.040;2023-03-01T07:15:22;21.77;;;17.10;;
14088;SDS011;7120;52.890;6.040;2023-03-01T07:17:48;23.47;;;19.20;;
14088;SDS011;7120;52.890;6.040;2023-03-01T07:20:15;22.83;;;18.33;;
14088;SDS011;7120;52.890;6.040;2023-03-01T07:22:41;28.97;;;21.33;;
14088;SDS011;7120;52.890;6.040;2023-03-01T07:25:07;28.17;;;20.87;;
14088;SDS011;7120;52.890;6.040;2023-03-01T07:27:33;25.63;;;19.57;;
14088;SDS011;7120;52.890;6.040;2023-03-01T07:29:58;24.67;;;19.03;;
14088;SDS011;7120;52.890;6.040;2023-03-01T07:32:24;23.70;;;18.23;;
14088;SDS011;7120;52.890;6.040;2023-03-01T07:34:50;25.13;;;18.70;;
14088;SDS011;7120;52.890;6.040;2023-03-01T07:37:16;21.50;;;18.20;;
14088;SDS011;7120;52.890;6.040;2023-03-01T07:39:42;23.50;;;18.63;;
14088;SDS011;7120;52.890;6.040;2023-03-01T07:42:07;23.30;;;19.03;;
14088;SDS011;7120;52.890;6.040;2023-03-01T07:44:32;23.47;;;18.87;;
14088;SDS011;7120;52.890;6.040;2023-03-01T07:46:59;24.97;;;19.47;;
14088;SDS011;7120;52.890;6.040;2023-03-01T07:49:25;29.53;;;22.00;;
14088;SDS011;7120;52.890;6.040;2023-03-01T07:51:51;24.13;;;20.10;;
14088;SDS011;7120;52.890;6.040;2023-03-01T07:54:17;24.73;;;20.07;;
14088;SDS011;7120;52.890;6.040;2023-03-01T07:56:43;25.77;;;20.70;;
14088;SDS011;7120;52.890;6.040;2023-03-01T07:59:09;25.97;;;20.07;;
14088;SDS011;7120;52.890;6.040;2023-03-01T08:01:34;26.60;;;21.30;;
14088;SDS011;7120;52.890;6.040;2023-03-01T08:03:59;26.80;;;21.17;;
14088;SDS011;7120;52.890;6.040;2023-03-01T08:06:25;28.90;;;23.23;;
14088;SDS011;7120;52.890;6.040;2023-03-01T08:08:50;30.97;;;25.20;;
14088;SDS011;7120;52.890;6.040;2023-03-01T08:11:16;32.03;;;24.53;;
14088;SDS011;7120;52.890;6.040;2023-03-01T08:13:42;30.87;;;23.80;;
14088;SDS011;7120;52.890;6.040;2023-03-01T08:16:12;28.77;;;22.70;;
14088;SDS011;7120;52.890;6.040;2023-03-01T08:18:39;31.80;;;25.63;;
14088;SDS011;7120;52.890;6.040;2023-03-01T08:21:06;35.57;;;25.27;;
14088;SDS011;7120;52.890;6.040;2023-03-01T08:23:36;38.40;;;27.33;;
14088;SDS011;7120;52.890;6.040;2023-03-01T08:26:11;37.57;;;25.20;;
14088;SDS011;7120;52.890;6.040;2023-03-01T08:28:41;38.00;;;26.93;;
14088;SDS011;7120;52.890;6.040;2023-03-01T08:33:40;36.23;;;28.17;;
14088;SDS011;7120;52.890;6.040;2023-03-01T08:36:06;42.53;;;28.43;;
14088;SDS011;7120;52.890;6.040;2023-03-01T08:38:32;41.83;;;30.83;;
14088;SDS011;7120;52.890;6.040;2023-03-01T08:41:02;39.67;;;30.40;;
14088;SDS011;7120;52.890;6.040;2023-03-01T08:43:28;43.33;;;30.50;;
14088;SDS011;7120;52.890;6.040;2023-03-01T08:45:53;41.83;;;30.43;;
14088;SDS011;7120;52.890;6.040;2023-03-01T08:48:19;36.50;;;28.20;;
14088;SDS011;7120;52.890;6.040;2023-03-01T08:50:44;31.47;;;26.40;;
14088;SDS011;7120;52.890;6.040;2023-03-01T08:53:09;30.47;;;25.83;;
14088;SDS011;7120;52.890;6.040;2023-03-01T08:55:35;29.97;;;25.57;;
14088;SDS011;7120;52.890;6.040;2023-03-01T08:58:00;30.10;;;25.73;;
14088;SDS011;7120;52.890;6.040;2023-03-01T09:00:25;27.77;;;24.87;;
14088;SDS011;7120;52.890;6.040;2023-03-01T09:02:51;27.37;;;24.30;;
14088;SDS011;7120;52.890;6.040;2023-03-01T09:05:16;25.33;;;22.63;;
14088;SDS011;7120;52.890;6.040;2023-03-01T09:07:41;25.50;;;22.57;;
14088;SDS011;7120;52.890;6.040;2023-03-01T09:10:07;24.07;;;21.47;;
14088;SDS011;7120;52.890;6.040;2023-03-01T09:12:33;24.90;;;22.27;;
14088;SDS011;7120;52.890;6.040;2023-03-01T09:14:59;24.00;;;21.50;;
14088;SDS011;7120;52.890;6.040;2023-03-01T09:17:24;23.17;;;20.77;;
14088;SDS011;7120;52.890;6.040;2023-03-01T09:19:49;22.67;;;20.13;;
14088;SDS011;7120;52.890;6.040;2023-03-01T09:22:15;25.07;;;20.83;;
14088;SDS011;7120;52.890;6.040;2023-03-01T09:24:40;22.97;;;20.67;;
14088;SDS011;7120;52.890;6.040;2023-03-01T09:27:05;23.93;;;20.30;;
14088;SDS011;7120;52.890;6.040;2023-03-01T09:29:33;24.23;;;21.33;;
14088;SDS011;7120;52.890;6.040;2023-03-01T09:32:02;24.00;;;20.03;;
14088;SDS011;7120;52.890;6.040;2023-03-01T09:34:28;23.30;;;20.90;;
14088;SDS011;7120;52.890;6.040;2023-03-01T09:36:53;23.03;;;20.03;;
14088;SDS011;7120;52.890;6.040;2023-03-01T09:39:19;22.90;;;20.23;;
14088;SDS011;7120;52.890;6.040;2023-03-01T09:41:58;22.57;;;20.17;;
14088;SDS011;7120;52.890;6.040;2023-03-01T09:44:31;23.40;;;19.60;;
14088;SDS011;7120;52.890;6.040;2023-03-01T09:46:58;22.50;;;20.03;;
14088;SDS011;7120;52.890;6.040;2023-03-01T09:49:28;22.20;;;19.90;;
14088;SDS011;7120;52.890;6.040;2023-03-01T09:54:44;22.43;;;20.03;;
14088;SDS011;7120;52.890;6.040;2023-03-01T09:57:20;20.67;;;18.47;;
14088;SDS011;7120;52.890;6.040;2023-03-01T10:10:23;17.80;;;15.50;;
14088;SDS011;7120;52.890;6.040;2023-03-01T10:12:56;16.77;;;15.03;;
14088;SDS011;7120;52.890;6.040;2023-03-01T10:15:25;15.23;;;13.80;;
14088;SDS011;7120;52.890;6.040;2023-03-01T10:18:00;19.53;;;15.70;;
14088;SDS011;7120;52.890;6.040;2023-03-01T10:20:54;16.77;;;15.13;;
14088;SDS011;7120;52.890;6.040;2023-03-01T10:23:22;16.43;;;14.77;;
14088;SDS011;7120;52.890;6.040;2023-03-01T10:26:00;15.43;;;13.93;;
14088;SDS011;7120;52.890;6.040;2023-03-01T10:28:42;17.50;;;15.70;;
14088;SDS011;7120;52.890;6.040;2023-03-01T10:31:16;13.70;;;12.40;;
14088;SDS011;7120;52.890;6.040;2023-03-01T10:33:47;14.80;;;13.17;;
14088;SDS011;7120;52.890;6.040;2023-03-01T10:36:16;15.43;;;13.83;;
14088;SDS011;7120;52.890;6.040;2023-03-01T10:38:52;15.07;;;13.50;;
14088;SDS011;7120;52.890;6.040;2023-03-01T10:41:24;14.10;;;12.80;;
14088;SDS011;7120;52.890;6.040;2023-03-01T10:43:55;14.50;;;13.00;;
14088;SDS011;7120;52.890;6.040;2023-03-01T10:46:27;12.53;;;11.43;;
14088;SDS011;7120;52.890;6.040;2023-03-01T10:51:46;13.77;;;12.37;;
14088;SDS011;7120;52.890;6.040;2023-03-01T10:54:17;14.17;;;12.67;;
14088;SDS011;7120;52.890;6.040;2023-03-01T10:56:49;13.83;;;12.53;;
14088;SDS011;7120;52.890;6.040;2023-03-01T10:59:20;14.47;;;12.97;;
14088;SDS011;7120;52.890;6.040;2023-03-01T11:07:26;15.57;;;12.93;;
14088;SDS011;7120;52.890;6.040;2023-03-01T11:09:51;15.20;;;13.50;;
14088;SDS011;7120;52.890;6.040;2023-03-01T11:12:17;14.50;;;13.10;;
14088;SDS011;7120;52.890;6.040;2023-03-01T11:14:50;14.43;;;13.03;;
14088;SDS011;7120;52.890;6.040;2023-03-01T11:17:27;13.03;;;11.73;;
14088;SDS011;7120;52.890;6.040;2023-03-01T11:22:28;21.73;;;19.80;;
14088;SDS011;7120;52.890;6.040;2023-03-01T11:24:56;14.53;;;13.10;;
14088;SDS011;7120;52.890;6.040;2023-03-01T11:27:33;13.83;;;12.47;;
14088;SDS011;7120;52.890;6.040;2023-03-01T11:30:03;14.77;;;13.27;;
14088;SDS011;7120;52.890;6.040;2023-03-01T11:32:36;14.33;;;12.77;;
14088;SDS011;7120;52.890;6.040;2023-03-01T11:40:25;14.73;;;13.37;;
14088;SDS011;7120;52.890;6.040;2023-03-01T11:42:57;16.63;;;13.57;;
14088;SDS011;7120;52.890;6.040;2023-03-01T11:51:05;14.00;;;12.60;;
14088;SDS011;7120;52.890;6.040;2023-03-01T12:01:53;14.70;;;13.10;;
14088;SDS011;7120;52.890;6.040;2023-03-01T12:12:55;15.07;;;13.57;;
14088;SDS011;7120;52.890;6.040;2023-03-01T12:35:22;20.00;;;18.00;;
14088;SDS011;7120;52.890;6.040;2023-03-01T12:40:48;17.17;;;15.47;;
14088;SDS011;7120;52.890;6.040;2023-03-01T12:49:32;15.53;;;14.03;;
14088;SDS011;7120;52.890;6.040;2023-03-01T12:52:26;21.30;;;18.67;;
14088;SDS011;7120;52.890;6.040;2023-03-01T12:54:56;15.67;;;13.37;;
14088;SDS011;7120;52.890;6.040;2023-03-01T12:57:28;14.70;;;13.30;;
14088;SDS011;7120;52.890;6.040;2023-03-01T13:03:30;14.73;;;13.13;;
14088;SDS011;7120;52.890;6.040;2023-03-01T13:51:03;15.30;;;13.77;;
14088;SDS011;7120;52.890;6.040;2023-03-01T13:53:36;14.40;;;13.00;;
14088;SDS011;7120;52.890;6.040;2023-03-01T13:56:10;34.97;;;30.03;;
14088;SDS011;7120;52.890;6.040;2023-03-01T14:01:42;15.73;;;14.13;;
14088;SDS011;7120;52.890;6.040;2023-03-01T14:09:45;15.10;;;13.50;;
14088;SDS011;7120;52.890;6.040;2023-03-01T14:20:20;15.70;;;13.27;;
14088;SDS011;7120;52.890;6.040;2023-03-01T14:22:47;14.27;;;12.87;;
14088;SDS011;7120;52.890;6.040;2023-03-01T14:25:23;14.90;;;13.27;;
14088;SDS011;7120;52.890;6.040;2023-03-01T14:30:34;14.97;;;13.47;;
14088;SDS011;7120;52.890;6.040;2023-03-01T14:33:04;14.63;;;13.07;;
14088;SDS011;7120;52.890;6.040;2023-03-01T14:35:32;16.10;;;14.50;;
14088;SDS011;7120;52.890;6.040;2023-03-01T14:38:00;16.60;;;15.00;;
14088;SDS011;7120;52.890;6.040;2023-03-01T14:40:31;15.93;;;13.80;;
14088;SDS011;7120;52.890;6.040;2023-03-01T14:42:58;17.70;;;15.80;;
14088;SDS011;7120;52.890;6.040;2023-03-01T14:45:27;16.47;;;14.03;;
14088;SDS011;7120;52.890;6.040;2023-03-01T14:47:55;15.50;;;13.90;;
14088;SDS011;7120;52.890;6.040;2023-03-01T14:50:26;15.73;;;14.13;;
14088;SDS011;7120;52.890;6.040;2023-03-01T14:52:54;17.33;;;15.53;;
14088;SDS011;7120;52.890;6.040;2023-03-01T14:55:29;16.37;;;14.77;;
14088;SDS011;7120;52.890;6.040;2023-03-01T14:57:58;17.50;;;15.70;;
14088;SDS011;7120;52.890;6.040;2023-03-01T15:00:25;16.57;;;14.67;;
14088;SDS011;7120;52.890;6.040;2023-03-01T15:02:55;16.27;;;14.67;;
14088;SDS011;7120;52.890;6.040;2023-03-01T15:05:27;17.23;;;15.43;;
14088;SDS011;7120;52.890;6.040;2023-03-01T15:07:58;16.10;;;14.47;;
14088;SDS011;7120;52.890;6.040;2023-03-01T15:10:32;18.20;;;16.10;;
14088;SDS011;7120;52.890;6.040;2023-03-01T15:13:10;16.37;;;14.67;;
14088;SDS011;7120;52.890;6.040;2023-03-01T15:15:46;17.07;;;15.27;;
14088;SDS011;7120;52.890;6.040;2023-03-01T15:20:53;20.30;;;18.17;;
14088;SDS011;7120;52.890;6.040;2023-03-01T15:23:21;19.03;;;17.07;;
14088;SDS011;7120;52.890;6.040;2023-03-01T15:25:49;21.70;;;18.40;;
14088;SDS011;7120;52.890;6.040;2023-03-01T15:28:28;19.83;;;16.97;;
14088;SDS011;7120;52.890;6.040;2023-03-01T15:31:41;20.37;;;17.03;;
14088;SDS011;7120;52.890;6.040;2023-03-01T15:33:45;16.57;;;14.90;;
14088;SDS011;7120;52.890;6.040;2023-03-01T15:39:00;17.63;;;15.83;;
14088;SDS011;7120;52.890;6.040;2023-03-01T15:41:37;19.20;;;17.03;;
14088;SDS011;7120;52.890;6.040;2023-03-01T15:44:15;19.13;;;16.77;;
14088;SDS011;7120;52.890;6.040;2023-03-01T15:46:54;16.27;;;14.57;;
14088;SDS011;7120;52.890;6.040;2023-03-01T15:51:57;19.87;;;17.17;;
14088;SDS011;7120;52.890;6.040;2023-03-01T15:54:23;19.77;;;17.77;;
14088;SDS011;7120;52.890;6.040;2023-03-01T15:56:50;17.37;;;15.33;;
14088;SDS011;7120;52.890;6.040;2023-03-01T15:59:16;19.23;;;16.10;;
14088;SDS011;7120;52.890;6.040;2023-03-01T16:01:42;16.40;;;14.70;;
14088;SDS011;7120;52.890;6.040;2023-03-01T16:04:09;16.07;;;14.40;;
14088;SDS011;7120;52.890;6.040;2023-03-01T16:06:41;16.57;;;14.83;;
14088;SDS011;7120;52.890;6.040;2023-03-01T16:09:06;17.60;;;15.37;;
14088;SDS011;7120;52.890;6.040;2023-03-01T16:11:31;16.93;;;15.13;;
14088;SDS011;7120;52.890;6.040;2023-03-01T16:13:59;15.13;;;13.70;;
14088;SDS011;7120;52.890;6.040;2023-03-01T16:16:24;16.37;;;14.43;;
14088;SDS011;7120;52.890;6.040;2023-03-01T16:18:49;16.50;;;13.93;;
14088;SDS011;7120;52.890;6.040;2023-03-01T16:21:19;18.50;;;14.37;;
14088;SDS011;7120;52.890;6.040;2023-03-01T16:23:47;16.97;;;14.60;;
14088;SDS011;7120;52.890;6.040;2023-03-01T16:26:13;18.03;;;16.03;;
14088;SDS011;7120;52.890;6.040;2023-03-01T16:28:39;15.83;;;14.17;;
14088;SDS011;7120;52.890;6.040;2023-03-01T16:31:06;17.57;;;15.00;;
14088;SDS011;7120;52.890;6.040;2023-03-01T16:33:31;18.37;;;15.20;;
14088;SDS011;7120;52.890;6.040;2023-03-01T16:35:57;18.20;;;14.70;;
14088;SDS011;7120;52.890;6.040;2023-03-01T16:38:24;16.93;;;15.23;;
14088;SDS011;7120;52.890;6.040;2023-03-01T16:40:51;18.50;;;16.60;;
14088;SDS011;7120;52.890;6.040;2023-03-01T16:43:17;18.03;;;15.90;;
14088;SDS011;7120;52.890;6.040;2023-03-01T16:45:43;17.57;;;15.67;;
14088;SDS011;7120;52.890;6.040;2023-03-01T16:48:10;18.07;;;16.17;;
14088;SDS011;7120;52.890;6.040;2023-03-01T16:50:36;18.80;;;16.90;;
14088;SDS011;7120;52.890;6.040;2023-03-01T16:53:01;18.60;;;16.03;;
14088;SDS011;7120;52.890;6.040;2023-03-01T16:55:27;20.50;;;16.63;;
14088;SDS011;7120;52.890;6.040;2023-03-01T16:57:52;19.77;;;16.20;;
14088;SDS011;7120;52.890;6.040;2023-03-01T17:00:18;19.27;;;17.20;;
14088;SDS011;7120;52.890;6.040;2023-03-01T17:02:43;19.33;;;17.33;;
14088;SDS011;7120;52.890;6.040;2023-03-01T17:05:09;23.77;;;19.33;;
14088;SDS011;7120;52.890;6.040;2023-03-01T17:07:36;21.80;;;18.83;;
14088;SDS011;7120;52.890;6.040;2023-03-01T17:10:03;25.50;;;19.87;;
14088;SDS011;7120;52.890;6.040;2023-03-01T17:12:30;26.03;;;22.43;;
14088;SDS011;7120;52.890;6.040;2023-03-01T17:14:57;23.13;;;20.70;;
14088;SDS011;7120;52.890;6.040;2023-03-01T17:17:22;22.47;;;19.40;;
14088;SDS011;7120;52.890;6.040;2023-03-01T17:19:47;27.80;;;24.80;;
14088;SDS011;7120;52.890;6.040;2023-03-01T17:22:13;24.23;;;20.80;;
14088;SDS011;7120;52.890;6.040;2023-03-01T17:24:39;24.57;;;21.87;;
14088;SDS011;7120;52.890;6.040;2023-03-01T17:27:05;27.47;;;23.60;;
14088;SDS011;7120;52.890;6.040;2023-03-01T17:29:31;24.83;;;21.57;;